Time;durP1;ratioP1;P1;durP2;ratioP2;P2;SDS_P1;SDS_P2;PMS_P1;PMS_P2;Temp;Humidity;BMP_temperature;BMP_pressure;BME280_temperature;BME280_humidity;BME280_pressure;Samples;Min_cycle;Max_cycle;Signal;HPM_P1;HPM_P2
2022/11/25 00:01:21;;;;;;;11.93;11.25;;;-0.10;99.90;;;;;;5034771;28;20540;-87
2022/11/25 00:03:48;;;;;;;12.18;11.52;;;-0.10;99.90;;;;;;5048699;28;20119;-85
2022/11/25 00:06:21;;;;;;;13.00;12.27;;;0.00;99.90;;;;;;5048494;28;20025;-83
2022/11/25 00:08:48;;;;;;;13.95;12.88;;;0.00;99.90;;;;;;5034847;28;20032;-84
2022/11/25 00:11:15;;;;;;;12.40;11.65;;;0.10;99.90;;;;;;5033766;28;20052;-84
2022/11/25 00:13:41;;;;;;;17.88;16.90;;;0.10;99.90;;;;;;5048284;28;20037;-81
2022/11/25 00:16:10;;;;;;;15.60;14.73;;;0.20;99.90;;;;;;5015648;28;20036;-83
2022/11/25 00:18:36;;;;;;;12.65;12.00;;;0.20;99.90;;;;;;5046137;28;20025;-83
2022/11/25 00:21:10;;;;;;;10.57;9.98;;;0.10;99.90;;;;;;5021803;28;20044;-86
2022/11/25 00:23:36;;;;;;;13.30;12.63;;;0.10;99.90;;;;;;5050590;28;20033;-80
2022/11/25 00:26:11;;;;;;;12.38;11.40;;;0.10;99.90;;;;;;5033064;28;20048;-81
2022/11/25 00:28:37;;;;;;;9.65;8.95;;;0.10;99.90;;;;;;5029471;28;20209;-82
2022/11/25 00:31:05;;;;;;;9.30;8.75;;;-0.30;99.90;;;;;;5030877;28;20025;-84
2022/11/25 00:33:31;;;;;;;12.75;11.77;;;-0.10;99.90;;;;;;5043341;28;20029;-83
2022/11/25 00:36:00;;;;;;;10.18;9.35;;;0.00;99.90;;;;;;5023130;28;20454;-83
2022/11/25 00:38:26;;;;;;;12.55;11.82;;;0.10;99.90;;;;;;5048880;28;20044;-83
2022/11/25 00:46:21;;;;;;;7.65;7.15;;;0.20;99.90;;;;;;5059616;28;20124;-85
2022/11/25 00:48:47;;;;;;;9.57;8.95;;;0.20;99.90;;;;;;5041183;28;20048;-86
2022/11/25 00:51:12;;;;;;;13.38;7.88;;;0.20;99.90;;;;;;5053786;28;20446;-85
2022/11/25 00:53:38;;;;;;;8.07;7.38;;;0.20;99.90;;;;;;5044164;28;20056;-83
2022/11/25 00:56:14;;;;;;;9.95;9.32;;;0.10;99.90;;;;;;5049075;28;20036;-84
2022/11/25 00:58:43;;;;;;;9.50;8.93;;;0.20;99.90;;;;;;5029506;28;20495;-86
2022/11/25 01:01:10;;;;;;;8.77;8.25;;;0.20;99.90;;;;;;5047039;28;20037;-85
2022/11/25 01:03:36;;;;;;;11.13;10.18;;;0.20;99.90;;;;;;5031023;28;20112;-84
2022/11/25 01:06:05;;;;;;;11.40;10.65;;;0.30;99.90;;;;;;5050381;28;20064;-83
2022/11/25 01:08:32;;;;;;;8.80;8.32;;;0.30;99.90;;;;;;5054574;28;20540;-86
2022/11/25 01:10:58;;;;;;;8.05;7.60;;;0.50;99.90;;;;;;5036190;28;20406;-84
2022/11/25 01:13:24;;;;;;;10.27;9.45;;;0.40;99.90;;;;;;5053861;28;20082;-84
2022/11/25 01:15:50;;;;;;;9.02;8.45;;;0.40;99.90;;;;;;5037544;28;20491;-84
2022/11/25 01:18:15;;;;;;;8.77;8.18;;;0.30;99.90;;;;;;5037270;28;20059;-84
2022/11/25 01:20:41;;;;;;;8.88;6.82;;;0.30;99.90;;;;;;5049072;28;20029;-85
2022/11/25 01:23:06;;;;;;;13.93;13.18;;;0.30;99.90;;;;;;5049455;28;20044;-86
2022/11/25 01:25:36;;;;;;;12.52;11.85;;;0.40;99.90;;;;;;5051418;28;20491;-85
2022/11/25 01:28:01;;;;;;;11.85;11.15;;;0.40;99.90;;;;;;5017881;28;20037;-84
2022/11/25 01:30:27;;;;;;;10.40;9.80;;;0.50;99.90;;;;;;5047563;28;20387;-84
2022/11/25 01:32:54;;;;;;;10.90;10.18;;;0.50;99.90;;;;;;5035498;28;20486;-85
2022/11/25 01:35:19;;;;;;;8.88;8.35;;;0.50;99.90;;;;;;5048574;28;20033;-84
2022/11/25 01:37:45;;;;;;;9.88;9.10;;;0.40;99.90;;;;;;5003584;28;20135;-84
2022/11/25 01:40:12;;;;;;;8.50;7.80;;;0.50;99.90;;;;;;5051283;28;20122;-85
2022/11/25 01:42:44;;;;;;;8.65;8.18;;;0.40;99.90;;;;;;5054823;28;20479;-86
2022/11/25 01:45:33;;;;;;;9.73;9.00;;;0.40;99.90;;;;;;5037281;28;20079;-83
2022/11/25 01:48:03;;;;;;;8.18;7.57;;;0.40;99.90;;;;;;5049978;28;20060;-87
2022/11/25 01:50:30;;;;;;;9.30;7.78;;;0.50;99.90;;;;;;5033709;28;20103;-86
2022/11/25 01:52:57;;;;;;;12.75;11.60;;;0.50;99.90;;;;;;5051866;28;20064;-85
2022/11/25 01:55:29;;;;;;;11.55;10.32;;;0.50;99.90;;;;;;5029184;28;20021;-85
2022/11/25 01:58:04;;;;;;;11.23;10.32;;;0.30;99.90;;;;;;5046752;28;20031;-85
2022/11/25 02:00:31;;;;;;;11.13;10.07;;;0.40;99.90;;;;;;5051214;28;20037;-88
2022/11/25 02:02:58;;;;;;;10.60;9.85;;;0.50;99.90;;;;;;5032962;28;20115;-85
2022/11/25 02:05:35;;;;;;;11.50;10.77;;;0.40;99.90;;;;;;5036683;28;20538;-87
2022/11/25 02:08:02;;;;;;;9.73;9.10;;;0.50;99.90;;;;;;5044865;28;20032;-85
2022/11/25 02:10:31;;;;;;;9.70;8.93;;;0.50;99.90;;;;;;5049201;28;20036;-87
2022/11/25 02:12:57;;;;;;;11.00;10.20;;;0.30;99.90;;;;;;5050640;28;20033;-84
2022/11/25 02:15:23;;;;;;;11.05;9.45;;;0.40;99.90;;;;;;5031945;28;20067;-84
2022/11/25 02:17:49;;;;;;;10.00;9.20;;;0.40;99.90;;;;;;5033368;28;20056;-86
2022/11/25 02:20:20;;;;;;;10.55;9.50;;;0.30;99.90;;;;;;5033140;28;20037;-84
2022/11/25 02:22:56;;;;;;;9.30;8.40;;;0.20;99.90;;;;;;5049643;28;20056;-86
2022/11/25 02:25:42;;;;;;;9.18;8.27;;;0.20;99.90;;;;;;5046162;28;20479;-82
2022/11/25 02:28:13;;;;;;;9.35;8.52;;;0.10;99.90;;;;;;5032484;28;20052;-85
2022/11/25 02:30:40;;;;;;;9.82;8.40;;;0.10;99.90;;;;;;5049149;28;20039;-82
2022/11/25 02:33:05;;;;;;;10.30;9.50;;;-0.10;99.90;;;;;;5048183;28;20044;-81
2022/11/25 02:35:40;;;;;;;12.00;10.98;;;-0.10;99.90;;;;;;5034920;28;20060;-85
2022/11/25 02:38:20;;;;;;;8.98;8.27;;;-0.10;99.90;;;;;;5050371;28;20028;-82
2022/11/25 02:40:53;;;;;;;8.63;7.90;;;-0.10;99.90;;;;;;5049431;28;20122;-83
2022/11/25 02:43:20;;;;;;;9.30;8.52;;;-0.10;99.90;;;;;;5049844;28;20127;-83
2022/11/25 02:46:03;;;;;;;10.05;9.20;;;-0.10;99.90;;;;;;5048829;28;20557;-84
2022/11/25 02:48:31;;;;;;;10.00;9.18;;;-0.10;99.90;;;;;;5047204;28;20115;-85
2022/11/25 02:50:57;;;;;;;10.90;9.90;;;-0.10;99.90;;;;;;5032466;28;20029;-83
2022/11/25 02:53:23;;;;;;;12.60;10.07;;;-0.10;99.90;;;;;;5030624;28;20553;-84
2022/11/25 02:55:49;;;;;;;11.80;9.93;;;-0.10;99.90;;;;;;5046681;28;20112;-86
2022/11/25 02:58:15;;;;;;;10.85;9.82;;;-0.20;99.90;;;;;;5048952;28;20060;-85
2022/11/25 03:00:41;;;;;;;11.20;10.25;;;-0.20;99.90;;;;;;5032708;28;20029;-85
2022/11/25 03:03:07;;;;;;;10.82;9.82;;;-0.20;99.90;;;;;;5046721;28;20037;-85
2022/11/25 03:05:32;;;;;;;10.75;9.68;;;0.00;99.90;;;;;;5050140;28;20470;-84
2022/11/25 03:07:58;;;;;;;10.70;9.80;;;0.10;99.90;;;;;;5015452;28;20036;-87
2022/11/25 03:10:24;;;;;;;10.88;9.88;;;0.10;99.90;;;;;;5046709;28;20040;-87
2022/11/25 03:12:50;;;;;;;10.15;9.27;;;0.20;99.90;;;;;;5034490;28;20055;-86
2022/11/25 03:15:16;;;;;;;9.73;8.98;;;0.10;99.90;;;;;;5031526;28;20403;-82
2022/11/25 03:17:42;;;;;;;11.18;10.15;;;0.10;99.90;;;;;;5034202;28;20029;-82
2022/11/25 03:20:08;;;;;;;12.85;11.77;;;0.20;99.90;;;;;;5031927;28;20032;-85
2022/11/25 03:22:35;;;;;;;16.50;15.20;;;0.20;99.90;;;;;;5048391;28;20029;-84
2022/11/25 03:25:00;;;;;;;20.08;18.40;;;0.20;99.90;;;;;;5046084;28;20029;-84
2022/11/25 03:27:26;;;;;;;21.00;19.33;;;0.30;99.90;;;;;;5031836;28;20043;-85
2022/11/25 03:29:52;;;;;;;36.70;34.88;;;0.30;99.90;;;;;;5049245;28;20029;-82
2022/11/25 03:32:17;;;;;;;15.55;14.23;;;0.30;99.90;;;;;;5049024;28;20039;-84
2022/11/25 03:34:43;;;;;;;23.58;22.13;;;0.40;99.90;;;;;;5043520;28;20403;-82
2022/11/25 03:37:09;;;;;;;22.77;21.30;;;0.40;99.90;;;;;;5031112;28;20031;-86
2022/11/25 03:39:34;;;;;;;32.25;26.30;;;0.50;99.90;;;;;;5048655;28;20069;-82
2022/11/25 03:42:00;;;;;;;24.48;22.83;;;0.60;99.90;;;;;;5017206;28;20028;-86
2022/11/25 03:44:26;;;;;;;34.40;32.63;;;0.60;99.90;;;;;;5049164;28;20119;-79
2022/11/25 03:46:52;;;;;;;33.65;31.48;;;0.60;99.90;;;;;;5048849;28;20032;-83
2022/11/25 03:49:17;;;;;;;33.40;31.50;;;0.60;99.90;;;;;;5048285;28;20044;-86
2022/11/25 03:51:43;;;;;;;32.47;30.58;;;0.60;99.90;;;;;;5048496;28;20685;-84
2022/11/25 03:54:09;;;;;;;24.13;22.40;;;0.60;99.90;;;;;;5056715;28;20534;-80
2022/11/25 03:56:34;;;;;;;25.50;21.70;;;0.60;99.90;;;;;;5050585;28;20035;-82
2022/11/25 03:59:00;;;;;;;26.30;24.42;;;0.60;99.90;;;;;;5041385;28;20116;-87
2022/11/25 04:01:26;;;;;;;27.90;25.70;;;0.60;99.90;;;;;;5038943;28;20502;-84
2022/11/25 04:03:52;;;;;;;25.65;24.35;;;0.60;99.90;;;;;;5046481;28;20043;-82
2022/11/25 04:06:20;;;;;;;27.60;25.92;;;0.70;99.90;;;;;;5061637;28;20033;-87
2022/11/25 04:08:46;;;;;;;23.60;22.02;;;0.70;99.90;;;;;;5040094;28;20025;-88
2022/11/25 04:11:11;;;;;;;24.67;23.10;;;0.70;99.90;;;;;;5051767;28;20035;-82
2022/11/25 04:13:37;;;;;;;34.63;32.83;;;0.80;99.90;;;;;;5047146;28;20067;-84
2022/11/25 04:16:02;;;;;;;32.47;30.73;;;0.80;99.90;;;;;;5050405;28;20033;-76
2022/11/25 04:18:28;;;;;;;30.65;28.73;;;0.80;99.90;;;;;;5029129;28;20041;-83
2022/11/25 04:20:54;;;;;;;24.23;22.65;;;0.70;99.90;;;;;;5040880;28;20510;-88
2022/11/25 04:23:20;;;;;;;26.08;24.73;;;0.70;99.90;;;;;;5056621;28;20051;-79
2022/11/25 04:25:49;;;;;;;27.67;26.13;;;0.70;99.90;;;;;;5052138;28;20029;-86
2022/11/25 04:28:14;;;;;;;19.67;18.33;;;0.80;99.90;;;;;;5061149;28;20025;-83
2022/11/25 04:30:40;;;;;;;21.85;19.63;;;0.80;99.90;;;;;;5055227;28;20486;-85
2022/11/25 04:33:06;;;;;;;22.35;21.20;;;0.70;99.90;;;;;;5036987;28;20037;-85
2022/11/25 04:35:31;;;;;;;27.17;25.73;;;0.80;99.90;;;;;;5040197;28;20102;-86
2022/11/25 04:37:57;;;;;;;14.07;10.48;;;0.90;99.90;;;;;;5058956;28;20659;-87
2022/11/25 04:40:23;;;;;;;23.38;22.10;;;0.90;99.90;;;;;;5019037;28;20036;-87
2022/11/25 04:42:48;;;;;;;19.17;17.83;;;0.90;99.90;;;;;;5050315;28;20033;-86
2022/11/25 04:45:16;;;;;;;12.55;11.63;;;0.90;99.90;;;;;;5057048;28;20040;-83
2022/11/25 04:47:43;;;;;;;10.75;10.10;;;0.80;99.90;;;;;;5052294;28;20032;-85
2022/11/25 04:50:15;;;;;;;18.25;17.23;;;0.80;99.90;;;;;;5056860;28;20395;-87
2022/11/25 04:52:41;;;;;;;16.58;15.63;;;0.90;99.90;;;;;;5062224;28;20044;-82
2022/11/25 04:55:07;;;;;;;12.27;11.02;;;0.90;99.90;;;;;;5067978;28;20600;-85
2022/11/25 04:57:32;;;;;;;22.85;21.63;;;0.90;99.90;;;;;;5068085;28;20032;-85
2022/11/25 04:59:59;;;;;;;14.48;12.85;;;0.90;99.90;;;;;;5067199;28;20078;-86
2022/11/25 05:02:27;;;;;;;14.52;13.73;;;0.80;99.90;;;;;;5033823;28;20486;-87
2022/11/25 05:04:55;;;;;;;11.10;10.40;;;0.90;99.90;;;;;;5068456;28;20111;-84
2022/11/25 05:07:23;;;;;;;10.50;9.75;;;0.90;99.90;;;;;;5064788;28;20025;-85
2022/11/25 05:09:49;;;;;;;11.60;10.50;;;1.00;99.90;;;;;;5068798;28;20088;-83
2022/11/25 05:12:27;;;;;;;13.30;12.30;;;1.00;99.90;;;;;;5061999;28;20517;-88
2022/11/25 05:14:53;;;;;;;9.63;9.10;;;1.00;99.90;;;;;;5065022;28;20032;-83
2022/11/25 05:17:21;;;;;;;9.90;8.98;;;1.00;99.90;;;;;;5060362;28;20041;-83
2022/11/25 05:19:48;;;;;;;9.43;8.75;;;0.90;99.90;;;;;;5061691;28;20037;-82
2022/11/25 05:22:16;;;;;;;11.40;10.57;;;1.00;99.90;;;;;;5047165;28;20029;-83
2022/11/25 05:24:42;;;;;;;11.77;10.98;;;1.00;99.90;;;;;;5061318;28;20043;-87
2022/11/25 05:27:07;;;;;;;10.35;9.63;;;1.00;99.90;;;;;;5064308;28;20025;-81
2022/11/25 05:29:33;;;;;;;10.85;10.13;;;1.00;99.90;;;;;;5047839;28;20394;-86
2022/11/25 05:31:59;;;;;;;10.15;9.60;;;1.10;99.90;;;;;;5063645;28;20086;-85
2022/11/25 05:34:25;;;;;;;10.75;9.95;;;1.10;99.90;;;;;;5047158;28;20033;-83
2022/11/25 05:36:51;;;;;;;10.48;9.45;;;1.10;99.90;;;;;;5045304;28;20582;-82
2022/11/25 05:39:17;;;;;;;13.23;12.40;;;1.10;99.90;;;;;;5046133;28;20037;-84
2022/11/25 05:41:42;;;;;;;10.02;9.35;;;1.10;99.90;;;;;;5049710;28;20059;-83
2022/11/25 05:44:08;;;;;;;12.50;11.55;;;1.10;99.90;;;;;;5070204;28;20040;-80
2022/11/25 05:46:34;;;;;;;13.02;12.10;;;1.10;99.90;;;;;;5068094;28;20025;-80
2022/11/25 05:48:59;;;;;;;16.83;15.48;;;1.20;99.90;;;;;;5047221;28;20078;-84
2022/11/25 05:51:27;;;;;;;13.20;12.43;;;1.20;99.90;;;;;;5070582;28;20130;-82
2022/11/25 05:53:53;;;;;;;12.60;11.80;;;1.20;99.90;;;;;;5067029;28;20044;-84
2022/11/25 05:56:20;;;;;;;11.25;10.30;;;1.20;99.90;;;;;;5071772;28;20033;-86
2022/11/25 05:58:46;;;;;;;10.98;10.15;;;1.30;99.90;;;;;;5041641;28;20063;-80
2022/11/25 06:01:14;;;;;;;13.07;12.02;;;1.30;99.90;;;;;;5069823;28;20064;-84
2022/11/25 06:03:40;;;;;;;14.43;13.00;;;1.40;99.90;;;;;;5068473;28;20058;-80
2022/11/25 06:06:07;;;;;;;18.63;16.98;;;1.40;99.90;;;;;;5053341;28;20494;-79
2022/11/25 06:08:34;;;;;;;14.88;12.68;;;1.50;99.90;;;;;;5052142;28;20028;-80
2022/11/25 06:11:03;;;;;;;13.57;10.32;;;1.50;99.90;;;;;;5052430;28;20048;-80
2022/11/25 06:13:29;;;;;;;13.48;11.35;;;1.50;99.90;;;;;;5052532;28;20090;-81
2022/11/25 06:15:55;;;;;;;13.93;12.57;;;1.50;99.90;;;;;;5070259;28;20032;-79
2022/11/25 06:18:20;;;;;;;18.10;10.27;;;1.50;99.90;;;;;;5037845;28;20044;-81
2022/11/25 06:20:58;;;;;;;12.15;10.77;;;1.60;99.90;;;;;;5035062;28;20735;-78
2022/11/25 06:23:24;;;;;;;14.15;12.30;;;1.60;99.90;;;;;;5054152;28;20028;-85
2022/11/25 06:25:51;;;;;;;12.55;11.40;;;1.60;99.90;;;;;;5069395;28;20382;-83
2022/11/25 06:28:18;;;;;;;10.73;9.98;;;1.60;99.90;;;;;;5070600;28;20041;-81
2022/11/25 06:30:43;;;;;;;9.90;9.32;;;1.60;99.90;;;;;;5070132;28;20035;-83
2022/11/25 06:33:09;;;;;;;13.30;12.32;;;1.70;99.90;;;;;;5052247;28;20028;-82
2022/11/25 06:35:35;;;;;;;14.48;13.07;;;1.60;99.90;;;;;;5055182;28;20040;-82
2022/11/25 06:38:01;;;;;;;17.13;15.80;;;1.60;99.90;;;;;;5052292;28;20408;-80
2022/11/25 06:40:27;;;;;;;16.08;14.75;;;1.70;99.90;;;;;;5030572;28;20086;-78
2022/11/25 06:42:53;;;;;;;11.93;11.20;;;1.70;99.90;;;;;;5063307;28;20040;-81
2022/11/25 06:45:18;;;;;;;17.30;16.10;;;1.70;99.90;;;;;;5052533;28;20075;-83
2022/11/25 06:47:44;;;;;;;17.42;16.52;;;1.80;99.90;;;;;;5051126;28;20054;-83
2022/11/25 06:50:10;;;;;;;17.27;15.90;;;1.90;99.90;;;;;;5052218;28;20025;-80
2022/11/25 06:52:36;;;;;;;11.95;11.20;;;1.80;99.90;;;;;;5049951;28;20163;-82
2022/11/25 06:55:01;;;;;;;14.80;13.82;;;1.80;99.90;;;;;;5070414;28;20024;-79
2022/11/25 06:57:28;;;;;;;14.70;13.82;;;1.90;99.90;;;;;;5069848;28;20032;-80
2022/11/25 06:59:53;;;;;;;17.23;16.30;;;1.90;99.90;;;;;;5051128;28;20429;-81
2022/11/25 07:02:19;;;;;;;22.38;21.17;;;1.90;99.90;;;;;;5069304;28;20405;-80
2022/11/25 07:04:44;;;;;;;29.40;28.02;;;1.90;99.90;;;;;;5067483;28;20449;-80
2022/11/25 07:07:10;;;;;;;22.02;20.83;;;2.00;99.90;;;;;;5069732;28;20530;-80
2022/11/25 07:09:36;;;;;;;21.80;20.42;;;2.00;99.90;;;;;;5036413;28;20494;-81
2022/11/25 07:12:02;;;;;;;30.13;28.40;;;2.00;99.90;;;;;;5065790;28;20086;-82
2022/11/25 07:14:29;;;;;;;21.92;20.63;;;2.10;99.90;;;;;;5055185;28;20118;-80
2022/11/25 07:16:56;;;;;;;14.35;13.38;;;2.10;99.90;;;;;;5067417;28;20078;-79
2022/11/25 07:19:21;;;;;;;24.45;22.50;;;2.00;99.90;;;;;;5050628;28;20071;-83
2022/11/25 07:21:47;;;;;;;35.80;32.83;;;2.10;99.90;;;;;;5069548;28;20071;-82
2022/11/25 07:24:15;;;;;;;23.20;17.20;;;2.10;99.90;;;;;;5052264;28;20053;-83
2022/11/25 07:26:42;;;;;;;22.88;20.88;;;2.20;99.90;;;;;;5065457;28;20041;-78
2022/11/25 07:29:13;;;;;;;19.95;18.23;;;2.20;99.90;;;;;;5069196;28;20068;-80
2022/11/25 07:31:42;;;;;;;23.98;22.10;;;2.20;99.90;;;;;;5062362;28;20090;-79
2022/11/25 07:34:18;;;;;;;17.40;16.27;;;2.20;99.90;;;;;;5048133;28;20162;-79
2022/11/25 07:36:45;;;;;;;18.40;17.48;;;2.10;99.90;;;;;;5050213;28;20055;-80
2022/11/25 07:39:15;;;;;;;16.67;15.68;;;2.10;99.90;;;;;;5068893;28;20063;-82
2022/11/25 07:41:43;;;;;;;26.75;24.90;;;2.20;99.90;;;;;;5051805;28;20028;-80
2022/11/25 07:44:12;;;;;;;42.80;40.60;;;2.30;99.90;;;;;;5049857;28;20056;-80
2022/11/25 07:46:41;;;;;;;45.00;42.15;;;2.50;99.90;;;;;;5053532;28;20121;-80
2022/11/25 07:49:10;;;;;;;29.83;28.20;;;2.80;99.90;;;;;;5047720;28;20033;-79
2022/11/25 07:52:03;;;;;;;30.08;28.33;;;2.80;99.90;;;;;;5049740;28;20482;-80
2022/11/25 07:54:29;;;;;;;14.35;13.23;;;3.00;99.90;;;;;;5049699;28;20051;-80
2022/11/25 07:56:56;;;;;;;23.60;22.23;;;3.00;99.90;;;;;;5068606;28;20445;-79
2022/11/25 07:59:22;;;;;;;29.60;27.45;;;3.10;99.90;;;;;;5068018;28;20106;-80
2022/11/25 08:01:53;;;;;;;21.30;20.00;;;3.10;99.90;;;;;;5048785;28;20033;-79
2022/11/25 08:04:20;;;;;;;27.20;25.58;;;2.90;99.90;;;;;;5064936;28;20087;-80
2022/11/25 08:06:49;;;;;;;44.80;42.17;;;3.00;99.90;;;;;;5068703;28;20043;-82
2022/11/25 08:09:18;;;;;;;20.17;18.67;;;3.40;99.90;;;;;;5051816;28;20062;-80
2022/11/25 08:11:44;;;;;;;17.63;16.25;;;3.40;99.90;;;;;;5068639;28;20031;-85
2022/11/25 08:14:10;;;;;;;22.00;20.20;;;3.60;99.90;;;;;;5067287;28;20161;-81
2022/11/25 08:16:37;;;;;;;20.70;14.50;;;3.80;99.90;;;;;;5068323;28;20106;-80
2022/11/25 08:19:06;;;;;;;15.32;14.23;;;3.90;99.90;;;;;;5057787;28;20044;-82
2022/11/25 08:21:32;;;;;;;76.78;68.28;;;4.00;99.90;;;;;;5030280;28;20675;-77
2022/11/25 08:23:58;;;;;;;21.80;20.35;;;3.90;99.90;;;;;;5059007;28;20113;-79
2022/11/25 08:26:30;;;;;;;20.05;18.92;;;3.90;99.90;;;;;;5057248;28;20491;-80
2022/11/25 08:28:56;;;;;;;24.98;23.67;;;3.90;99.90;;;;;;5062983;28;20032;-80
2022/11/25 08:31:25;;;;;;;35.72;34.05;;;4.00;99.90;;;;;;5054137;28;20072;-81
2022/11/25 08:33:52;;;;;;;26.00;24.70;;;4.00;99.90;;;;;;5032748;28;20029;-80
2022/11/25 08:36:19;;;;;;;14.48;13.50;;;4.10;99.90;;;;;;5046230;28;20378;-80
2022/11/25 08:38:46;;;;;;;27.65;26.25;;;4.30;99.90;;;;;;5057386;28;20032;-81
2022/11/25 08:41:16;;;;;;;47.65;45.38;;;4.20;99.90;;;;;;5057574;28;20054;-80
2022/11/25 08:43:42;;;;;;;27.00;25.10;;;4.00;99.90;;;;;;5049619;28;20067;-80
2022/11/25 08:46:14;;;;;;;20.33;19.27;;;3.90;99.90;;;;;;5063298;28;20090;-80
2022/11/25 08:48:41;;;;;;;32.83;31.33;;;3.80;99.90;;;;;;5041002;28;20712;-80
2022/11/25 08:51:21;;;;;;;16.13;14.80;;;3.90;99.90;;;;;;5066323;28;20788;-80
2022/11/25 08:53:50;;;;;;;38.35;36.70;;;3.90;99.90;;;;;;5064838;28;20074;-81
2022/11/25 08:56:16;;;;;;;32.05;30.48;;;4.00;99.90;;;;;;5043553;28;20569;-80
2022/11/25 08:58:42;;;;;;;44.63;42.80;;;4.20;99.90;;;;;;5066869;28;20074;-78
2022/11/25 09:01:13;;;;;;;51.38;48.67;;;4.30;99.90;;;;;;5040179;28;20041;-78
2022/11/25 09:03:43;;;;;;;17.08;16.10;;;4.20;99.90;;;;;;5058476;28;20027;-84
2022/11/25 09:06:10;;;;;;;20.23;19.27;;;4.30;99.90;;;;;;5036327;28;20056;-81
2022/11/25 09:08:37;;;;;;;19.90;18.83;;;4.40;99.90;;;;;;5056633;28;20778;-81
2022/11/25 09:11:04;;;;;;;44.35;41.78;;;4.40;99.90;;;;;;5066962;28;20019;-86
2022/11/25 09:13:31;;;;;;;22.00;20.92;;;4.50;99.90;;;;;;5017125;28;20573;-82
2022/11/25 09:15:57;;;;;;;19.58;18.58;;;4.60;99.90;;;;;;5066497;28;20541;-80
2022/11/25 09:18:25;;;;;;;26.40;25.08;;;4.70;99.90;;;;;;5048026;28;20470;-84
2022/11/25 09:20:51;;;;;;;32.30;30.95;;;4.70;99.90;;;;;;5067698;28;20063;-81
2022/11/25 09:23:18;;;;;;;21.50;20.42;;;4.80;99.90;;;;;;5067856;28;20032;-81
2022/11/25 09:25:57;;;;;;;26.63;25.30;;;4.80;99.90;;;;;;5045673;28;20083;-80
2022/11/25 09:28:24;;;;;;;15.38;14.52;;;4.90;99.90;;;;;;5062727;28;20028;-83
2022/11/25 09:30:51;;;;;;;17.60;16.35;;;4.90;99.90;;;;;;5049343;28;20736;-83
2022/11/25 09:33:18;;;;;;;32.05;30.63;;;5.00;99.90;;;;;;5035471;28;20040;-81
2022/11/25 09:35:44;;;;;;;20.80;19.67;;;5.00;99.90;;;;;;5044937;28;20069;-80
2022/11/25 09:38:10;;;;;;;28.60;27.27;;;5.00;99.90;;;;;;5063294;28;20805;-80
2022/11/25 09:41:04;;;;;;;10.40;9.73;;;5.20;99.90;;;;;;5046221;28;20028;-82
2022/11/25 09:46:41;;;;;;;20.58;19.65;;;5.50;99.90;;;;;;5059128;28;20113;-82
2022/11/25 09:49:25;;;;;;;8.38;7.68;;;5.60;99.90;;;;;;5065441;28;20025;-81
2022/11/25 09:52:08;;;;;;;9.80;9.02;;;5.60;99.90;;;;;;5066833;28;20063;-81
2022/11/25 09:54:56;;;;;;;7.95;7.35;;;5.70;99.90;;;;;;5048297;28;20494;-81
2022/11/25 09:57:47;;;;;;;10.35;9.75;;;5.70;99.90;;;;;;5063493;28;20137;-81
2022/11/25 10:00:19;;;;;;;8.32;7.63;;;5.80;99.90;;;;;;5063030;28;20080;-80
2022/11/25 10:03:08;;;;;;;96.05;71.40;;;6.10;99.90;;;;;;5052217;28;20036;-79
2022/11/25 10:05:59;;;;;;;25.60;24.10;;;6.00;98.60;;;;;;5069493;28;20038;-80
2022/11/25 10:08:28;;;;;;;38.75;21.75;;;6.00;98.30;;;;;;5065535;28;20070;-84
2022/11/25 10:11:00;;;;;;;15.15;14.30;;;6.10;98.40;;;;;;5047866;28;20158;-78
2022/11/25 10:13:58;;;;;;;13.75;12.95;;;6.10;97.80;;;;;;5048126;28;20033;-81
2022/11/25 10:16:30;;;;;;;7.15;6.65;;;6.10;97.70;;;;;;5045254;28;20032;-83
2022/11/25 10:19:01;;;;;;;9.50;8.93;;;6.30;98.20;;;;;;5048598;28;20081;-82
2022/11/25 10:21:27;;;;;;;7.00;6.57;;;6.50;98.20;;;;;;5066418;28;20025;-83
2022/11/25 10:23:52;;;;;;;7.82;7.07;;;6.50;97.30;;;;;;5035912;28;20115;-79
2022/11/25 10:26:22;;;;;;;9.20;8.60;;;6.60;97.60;;;;;;5048405;28;20136;-81
2022/11/25 10:29:12;;;;;;;10.32;8.77;;;6.60;97.60;;;;;;5048650;28;20033;-81
2022/11/25 10:31:40;;;;;;;11.43;10.00;;;6.70;97.50;;;;;;5068314;28;20556;-81
2022/11/25 10:34:25;;;;;;;8.85;8.25;;;6.70;96.70;;;;;;5066221;28;20048;-82
2022/11/25 10:37:12;;;;;;;7.70;7.30;;;6.80;97.50;;;;;;5069193;28;20028;-78
2022/11/25 10:39:38;;;;;;;7.78;7.38;;;7.00;97.80;;;;;;5054802;28;20650;-81
2022/11/25 10:42:17;;;;;;;9.77;9.27;;;7.10;96.90;;;;;;5066998;28;20067;-79
2022/11/25 10:44:43;;;;;;;9.57;8.98;;;7.20;96.30;;;;;;5064622;28;20033;-80
2022/11/25 10:47:37;;;;;;;10.25;9.35;;;7.20;96.40;;;;;;5069436;28;20369;-81
2022/11/25 10:50:11;;;;;;;10.05;9.45;;;7.40;96.10;;;;;;5043844;28;20145;-79
2022/11/25 10:52:53;;;;;;;10.32;9.73;;;7.50;96.10;;;;;;5065879;28;20044;-79
2022/11/25 10:55:25;;;;;;;12.93;12.25;;;7.50;95.50;;;;;;5062368;28;20454;-80
2022/11/25 10:57:52;;;;;;;11.93;11.32;;;7.80;95.70;;;;;;5067364;28;20041;-82
2022/11/25 11:00:37;;;;;;;14.07;13.38;;;8.00;95.00;;;;;;5059519;28;20727;-80
2022/11/25 11:03:14;;;;;;;11.05;10.43;;;8.00;93.90;;;;;;5069023;28;20454;-80
2022/11/25 11:05:46;;;;;;;15.15;14.27;;;8.00;93.80;;;;;;5065253;28;20177;-80
2022/11/25 11:08:11;;;;;;;12.95;12.13;;;8.20;94.50;;;;;;5062603;28;20033;-82
2022/11/25 11:10:37;;;;;;;12.80;11.93;;;8.20;93.80;;;;;;5042063;28;20368;-80
2022/11/25 11:13:23;;;;;;;11.02;10.45;;;8.10;93.10;;;;;;5047941;28;20040;-81
2022/11/25 11:15:49;;;;;;;13.65;12.57;;;7.80;93.00;;;;;;5046234;28;20055;-79
2022/11/25 11:18:24;;;;;;;15.00;14.23;;;7.90;94.00;;;;;;5046021;28;20045;-80
2022/11/25 11:20:55;;;;;;;21.05;19.63;;;8.00;94.00;;;;;;5066370;28;20086;-83
2022/11/25 11:23:22;;;;;;;18.00;16.63;;;7.90;93.20;;;;;;5049765;28;20498;-81
2022/11/25 11:26:01;;;;;;;12.52;11.93;;;7.90;93.90;;;;;;5043153;28;20041;-80
2022/11/25 11:28:38;;;;;;;13.93;13.13;;;7.80;94.20;;;;;;5046461;28;20059;-81
2022/11/25 11:31:23;;;;;;;16.25;15.40;;;8.20;94.50;;;;;;5060749;28;20024;-80
2022/11/25 11:33:58;;;;;;;11.93;11.35;;;8.30;94.00;;;;;;5050402;28;20035;-80
2022/11/25 11:36:47;;;;;;;19.65;18.65;;;8.40;92.70;;;;;;5060175;28;20056;-79
2022/11/25 11:39:42;;;;;;;14.57;13.88;;;8.40;92.80;;;;;;5064420;28;20142;-80
2022/11/25 11:42:30;;;;;;;9.38;8.88;;;8.40;93.40;;;;;;5065732;28;20453;-81
2022/11/25 11:45:05;;;;;;;12.90;12.27;;;8.40;92.40;;;;;;5066626;28;20466;-81
2022/11/25 11:47:49;;;;;;;15.98;15.18;;;8.40;92.70;;;;;;5047362;28;20430;-80
2022/11/25 11:50:25;;;;;;;17.55;16.65;;;8.50;93.00;;;;;;5059884;28;20062;-79
2022/11/25 11:53:19;;;;;;;14.48;13.80;;;8.60;93.20;;;;;;5059249;28;20580;-83
2022/11/25 11:56:10;;;;;;;12.65;12.05;;;8.50;93.20;;;;;;5047432;28;20024;-80
2022/11/25 11:59:01;;;;;;;14.38;13.57;;;8.60;92.40;;;;;;5066209;28;20027;-83
2022/11/25 12:01:50;;;;;;;14.48;13.57;;;8.80;92.80;;;;;;5062680;28;20037;-78
2022/11/25 12:04:21;;;;;;;15.13;14.10;;;9.00;92.30;;;;;;5063823;28;20060;-80
2022/11/25 12:06:59;;;;;;;14.00;13.20;;;8.80;93.20;;;;;;5033450;28;20040;-78
2022/11/25 12:09:28;;;;;;;79.80;45.92;;;8.70;93.00;;;;;;5065780;28;20029;-79
2022/11/25 12:12:01;;;;;;;10.98;10.18;;;8.50;91.90;;;;;;5064831;28;20173;-81
2022/11/25 12:14:41;;;;;;;14.63;13.63;;;8.40;93.50;;;;;;5049983;28;20032;-78
2022/11/25 12:17:38;;;;;;;10.45;9.90;;;8.30;92.30;;;;;;5062100;28;20032;-79
2022/11/25 12:20:21;;;;;;;12.23;11.50;;;8.30;92.40;;;;;;5064518;28;20037;-78
2022/11/25 12:23:00;;;;;;;14.60;13.68;;;8.20;92.80;;;;;;5068470;28;20127;-78
2022/11/25 12:25:30;;;;;;;14.15;13.38;;;8.20;92.70;;;;;;5068031;28;20365;-79
2022/11/25 12:28:38;;;;;;;14.23;13.35;;;8.20;92.40;;;;;;5049300;28;20127;-83
2022/11/25 12:31:26;;;;;;;16.67;15.98;;;8.20;92.50;;;;;;5053008;28;20039;-79
2022/11/25 12:34:06;;;;;;;15.25;14.38;;;8.40;92.50;;;;;;5050055;28;20086;-80
2022/11/25 12:36:39;;;;;;;13.43;12.63;;;8.50;92.50;;;;;;5043365;28;20040;-80
2022/11/25 12:39:27;;;;;;;11.68;10.98;;;8.50;92.10;;;;;;5067100;28;20041;-83
2022/11/25 12:41:58;;;;;;;18.15;16.63;;;8.50;92.20;;;;;;5064157;28;20074;-77
2022/11/25 12:44:48;;;;;;;;;;;8.60;92.90;;;;;;5046799;28;20041;-78
2022/11/25 12:47:13;;;;;;;9.23;8.60;;;8.70;92.70;;;;;;5068441;28;19916;-77
2022/11/25 12:49:46;;;;;;;10.98;10.35;;;8.70;92.60;;;;;;5037820;28;20024;-79
2022/11/25 12:52:41;;;;;;;18.75;17.70;;;8.70;92.60;;;;;;5075599;28;20044;-77
2022/11/25 12:55:12;;;;;;;15.63;14.73;;;8.60;92.30;;;;;;5054630;28;20047;-77
2022/11/25 12:58:15;;;;;;;14.60;13.15;;;8.50;92.50;;;;;;5054563;28;20437;-78
2022/11/25 13:01:02;;;;;;;13.80;13.07;;;8.60;93.00;;;;;;5071086;28;20108;-78
2022/11/25 13:04:22;;;;;;;14.18;13.38;;;8.60;93.00;;;;;;5069931;28;20038;-78
2022/11/25 13:07:17;;;;;;;14.18;13.07;;;8.70;93.10;;;;;;4977296;28;20125;-78